Time;durP1;ratioP1;P1;durP2;ratioP2;P2;SDS_P1;SDS_P2;PMS_P1;PMS_P2;Temp;Humidity;BMP_temperature;BMP_pressure;BME280_temperature;BME280_humidity;BME280_pressure;Samples;Min_cycle;Max_cycle;Signal;HPM_P1;HPM_P2
2023/11/20 00:00:12;;;;;;;18.17;5.78;;;9.80;99.90;;;;;;5071394;28;20049;-53
2023/11/20 00:02:42;;;;;;;16.73;6.28;;;9.80;99.90;;;;;;5071163;28;20111;-54
2023/11/20 00:05:08;;;;;;;12.67;6.13;;;9.70;99.90;;;;;;5071202;28;20043;-53
2023/11/20 00:07:34;;;;;;;19.05;5.85;;;9.70;99.90;;;;;;5070759;28;20028;-53
2023/11/20 00:09:59;;;;;;;17.27;5.82;;;9.70;99.90;;;;;;5070761;28;20040;-54
2023/11/20 00:12:25;;;;;;;18.25;5.72;;;9.70;99.90;;;;;;5069306;28;20421;-53
2023/11/20 00:14:51;;;;;;;18.65;5.78;;;9.70;99.90;;;;;;5070723;28;20075;-53
2023/11/20 00:17:16;;;;;;;11.18;4.90;;;9.70;99.90;;;;;;5070659;28;20118;-53
2023/11/20 00:19:42;;;;;;;12.75;5.15;;;9.70;99.90;;;;;;5069163;28;20095;-53
2023/11/20 00:22:09;;;;;;;10.65;4.72;;;9.70;99.90;;;;;;5070831;28;20078;-54
2023/11/20 00:24:35;;;;;;;17.70;5.50;;;9.70;99.90;;;;;;5070440;28;20203;-53
2023/11/20 00:27:00;;;;;;;10.57;5.10;;;9.70;99.90;;;;;;5068478;28;20269;-52
2023/11/20 00:29:27;;;;;;;15.65;5.10;;;9.60;99.90;;;;;;5070647;28;20017;-51
2023/11/20 00:31:53;;;;;;;12.02;5.72;;;9.60;99.90;;;;;;5070349;28;20025;-52
2023/11/20 00:34:18;;;;;;;16.67;5.05;;;9.70;99.90;;;;;;5070051;28;20081;-51
2023/11/20 00:36:44;;;;;;;15.40;5.07;;;9.60;99.90;;;;;;5069961;28;20086;-51
2023/11/20 00:39:09;;;;;;;10.23;5.00;;;9.70;99.90;;;;;;5070888;28;20036;-52
2023/11/20 00:41:35;;;;;;;11.30;4.55;;;9.70;99.90;;;;;;5070676;28;20032;-52
2023/11/20 00:44:02;;;;;;;10.45;4.60;;;9.70;99.90;;;;;;5070201;28;20024;-51
2023/11/20 00:46:28;;;;;;;11.25;4.22;;;9.70;99.90;;;;;;5068562;28;20055;-51
2023/11/20 00:48:53;;;;;;;13.25;5.20;;;9.70;99.90;;;;;;5070135;28;20024;-52
2023/11/20 00:51:19;;;;;;;7.65;4.78;;;9.70;99.90;;;;;;5070168;28;20040;-51
2023/11/20 00:53:48;;;;;;;11.50;4.90;;;9.70;99.90;;;;;;5069977;28;20029;-51
2023/11/20 00:56:17;;;;;;;13.57;5.05;;;9.70;99.90;;;;;;5067699;28;20115;-51
2023/11/20 00:58:43;;;;;;;16.20;4.85;;;9.70;99.90;;;;;;5069759;28;20436;-52
2023/11/20 01:01:09;;;;;;;13.13;4.85;;;9.70;99.90;;;;;;5069896;28;20025;-52
2023/11/20 01:03:34;;;;;;;12.15;4.72;;;9.70;99.90;;;;;;5068435;28;20032;-51
2023/11/20 01:06:04;;;;;;;5.88;4.30;;;9.70;99.90;;;;;;5069351;28;20031;-50
2023/11/20 01:08:29;;;;;;;12.77;4.82;;;9.70;99.90;;;;;;5069646;28;20024;-52
2023/11/20 01:10:55;;;;;;;11.50;4.53;;;9.70;99.90;;;;;;5070155;28;20238;-52
2023/11/20 01:13:20;;;;;;;10.00;4.70;;;9.80;99.90;;;;;;5070179;28;20021;-52
2023/11/20 01:15:46;;;;;;;15.10;4.20;;;9.80;99.90;;;;;;5069890;28;20017;-51
2023/11/20 01:18:12;;;;;;;14.23;4.40;;;9.80;99.90;;;;;;5069598;28;20033;-52
2023/11/20 01:20:37;;;;;;;9.45;4.30;;;9.80;99.90;;;;;;5069868;28;20029;-52
2023/11/20 01:23:03;;;;;;;7.47;4.45;;;9.80;99.90;;;;;;5069572;28;20033;-51
2023/11/20 01:25:31;;;;;;;8.43;4.13;;;9.80;99.90;;;;;;5069408;28;20017;-51
2023/11/20 01:28:00;;;;;;;8.00;3.80;;;9.80;99.90;;;;;;5069087;28;20017;-52
2023/11/20 01:30:26;;;;;;;8.18;4.13;;;9.80;99.90;;;;;;5069665;28;20134;-52
2023/11/20 01:32:52;;;;;;;12.55;4.70;;;9.90;99.90;;;;;;5069219;28;20052;-51
2023/11/20 01:35:18;;;;;;;11.15;4.13;;;9.80;99.90;;;;;;5069347;28;20028;-52
2023/11/20 01:37:43;;;;;;;7.32;3.65;;;9.90;99.90;;;;;;5069095;28;20144;-51
2023/11/20 01:40:12;;;;;;;8.73;4.00;;;9.90;99.90;;;;;;5069621;28;20040;-51
2023/11/20 01:42:38;;;;;;;5.88;2.92;;;9.90;99.90;;;;;;5069097;28;20025;-52
2023/11/20 01:45:04;;;;;;;5.68;3.47;;;10.00;99.90;;;;;;5069354;28;20020;-51
2023/11/20 01:47:30;;;;;;;9.85;3.63;;;10.00;99.90;;;;;;5068636;28;20024;-50
2023/11/20 01:49:56;;;;;;;6.47;3.38;;;10.00;99.90;;;;;;5069054;28;20161;-51
2023/11/20 01:52:22;;;;;;;7.20;3.10;;;9.90;99.90;;;;;;5068755;28;20025;-51
2023/11/20 01:54:49;;;;;;;6.25;3.42;;;10.00;99.90;;;;;;5067518;28;20336;-51
2023/11/20 01:57:15;;;;;;;6.72;3.80;;;10.00;99.90;;;;;;5068449;28;20055;-49
2023/11/20 01:59:41;;;;;;;8.32;3.60;;;10.10;99.90;;;;;;5067400;28;20111;-51
2023/11/20 02:02:07;;;;;;;7.68;4.03;;;10.10;99.90;;;;;;5068522;28;20059;-51
2023/11/20 02:04:34;;;;;;;8.02;3.33;;;10.10;99.90;;;;;;5068708;28;20025;-52
2023/11/20 02:07:00;;;;;;;7.28;3.58;;;10.10;99.90;;;;;;5067186;28;20404;-51
2023/11/20 02:09:25;;;;;;;5.88;3.65;;;10.10;99.90;;;;;;5068487;28;20020;-51
2023/11/20 02:11:51;;;;;;;4.70;2.75;;;10.20;99.90;;;;;;5068515;28;20028;-52
2023/11/20 02:14:17;;;;;;;6.78;3.58;;;10.20;99.90;;;;;;5068094;28;20035;-52
2023/11/20 02:16:43;;;;;;;5.03;3.47;;;10.10;99.90;;;;;;5067391;28;20453;-52
2023/11/20 02:19:13;;;;;;;10.25;3.97;;;10.20;99.90;;;;;;5068519;28;20024;-52
2023/11/20 02:21:39;;;;;;;;;;;10.20;99.90;;;;;;5068486;28;20021;-52
2023/11/20 02:24:06;;;;;;;4.75;3.20;;;10.20;99.90;;;;;;5067931;28;19930;-51
2023/11/20 02:26:46;;;;;;;7.25;3.78;;;10.20;99.90;;;;;;5067868;28;20114;-51
2023/11/20 02:29:26;;;;;;;5.25;3.67;;;10.20;99.90;;;;;;5068392;28;20504;-52
2023/11/20 02:31:52;;;;;;;5.17;3.63;;;10.30;99.90;;;;;;5066672;28;20047;-52
2023/11/20 02:34:17;;;;;;;7.82;3.75;;;10.20;99.90;;;;;;5068347;28;20469;-51
2023/11/20 02:36:43;;;;;;;7.43;3.65;;;10.20;99.90;;;;;;5065722;28;20054;-51
2023/11/20 02:39:09;;;;;;;5.35;4.03;;;10.20;99.90;;;;;;5066505;28;20054;-51
2023/11/20 02:41:36;;;;;;;6.90;3.67;;;10.30;99.90;;;;;;5068436;28;20033;-52
2023/11/20 02:44:03;;;;;;;11.15;3.63;;;10.30;99.90;;;;;;5067695;28;20013;-53
2023/11/20 02:46:28;;;;;;;9.82;4.45;;;10.30;99.90;;;;;;5066545;28;20079;-51
2023/11/20 02:48:54;;;;;;;7.47;3.67;;;10.30;99.90;;;;;;5068010;28;20123;-51
2023/11/20 02:51:19;;;;;;;7.82;4.18;;;10.30;99.90;;;;;;5067974;28;20524;-51
2023/11/20 02:53:45;;;;;;;10.20;4.53;;;10.30;99.90;;;;;;5067440;28;20028;-52
2023/11/20 02:56:11;;;;;;;7.32;3.92;;;10.30;99.90;;;;;;5067629;28;20028;-52
2023/11/20 02:58:37;;;;;;;10.02;4.50;;;10.30;99.90;;;;;;5068090;28;20027;-51
2023/11/20 03:01:04;;;;;;;7.20;4.90;;;10.30;99.90;;;;;;5067644;28;20484;-51
2023/11/20 03:03:30;;;;;;;7.45;4.97;;;10.30;99.90;;;;;;5066015;28;20059;-51
2023/11/20 03:05:56;;;;;;;10.07;5.35;;;10.30;99.90;;;;;;5066737;28;20013;-51
2023/11/20 03:08:22;;;;;;;8.07;5.90;;;10.40;99.90;;;;;;5065360;28;20028;-49
2023/11/20 03:10:48;;;;;;;12.93;6.32;;;10.30;99.90;;;;;;5066071;28;20028;-52
2023/11/20 03:13:14;;;;;;;9.55;6.22;;;10.30;99.90;;;;;;5067830;28;20048;-52
2023/11/20 03:15:40;;;;;;;13.73;6.03;;;10.40;99.90;;;;;;5067389;28;20586;-52
2023/11/20 03:18:06;;;;;;;8.88;5.78;;;10.40;99.90;;;;;;5068625;28;20054;-52
2023/11/20 03:20:32;;;;;;;8.38;6.20;;;10.40;99.90;;;;;;5074314;28;20052;-52
2023/11/20 03:22:58;;;;;;;10.77;7.15;;;10.40;99.90;;;;;;5073750;28;20159;-50
2023/11/20 03:25:23;;;;;;;11.15;7.28;;;10.40;99.90;;;;;;5072958;28;20364;-52
2023/11/20 03:27:49;;;;;;;10.00;7.22;;;10.40;99.90;;;;;;5074417;28;20103;-52
2023/11/20 03:30:16;;;;;;;13.52;7.60;;;10.40;99.90;;;;;;5074540;28;20384;-51
2023/11/20 03:32:41;;;;;;;14.43;8.38;;;10.40;99.90;;;;;;5074503;28;20032;-52
2023/11/20 03:35:09;;;;;;;13.40;8.30;;;10.40;99.90;;;;;;5074397;28;20044;-52
2023/11/20 03:37:34;;;;;;;16.63;9.82;;;10.40;99.90;;;;;;5073848;28;20382;-52
2023/11/20 03:40:00;;;;;;;23.55;11.02;;;10.40;99.90;;;;;;5074608;28;20086;-52
2023/11/20 03:42:25;;;;;;;16.17;10.30;;;10.40;99.90;;;;;;5074408;28;20072;-51
2023/11/20 03:44:52;;;;;;;17.52;9.98;;;10.40;99.90;;;;;;5074038;28;20040;-52
2023/11/20 03:47:18;;;;;;;23.70;10.40;;;10.40;99.90;;;;;;5073557;28;20118;-51
2023/11/20 03:49:43;;;;;;;23.85;12.55;;;10.40;99.90;;;;;;5072754;28;20028;-51
2023/11/20 03:52:09;;;;;;;22.42;11.65;;;10.40;99.90;;;;;;5073972;28;20036;-51
2023/11/20 03:54:34;;;;;;;21.77;12.45;;;10.40;99.90;;;;;;5074433;28;20549;-52
2023/11/20 03:57:00;;;;;;;24.63;12.27;;;10.40;99.90;;;;;;5073686;28;20509;-52
2023/11/20 03:59:26;;;;;;;22.80;12.48;;;10.40;99.90;;;;;;5072701;28;20108;-52
2023/11/20 04:01:51;;;;;;;17.25;11.05;;;10.40;99.90;;;;;;5072245;28;20036;-52
2023/11/20 04:04:17;;;;;;;26.95;11.98;;;10.40;99.90;;;;;;5073732;28;20020;-50
2023/11/20 04:06:42;;;;;;;22.35;11.95;;;10.40;99.90;;;;;;5073568;28;20320;-51
2023/11/20 04:09:08;;;;;;;28.15;14.20;;;10.40;99.90;;;;;;5073836;28;20402;-51
2023/11/20 04:11:35;;;;;;;27.77;12.18;;;10.40;99.90;;;;;;5074047;28;20081;-52
2023/11/20 04:14:00;;;;;;;20.50;11.50;;;10.40;99.90;;;;;;5073989;28;20043;-52
2023/11/20 04:16:26;;;;;;;22.23;12.30;;;10.40;99.90;;;;;;5071972;28;20028;-51
2023/11/20 04:18:52;;;;;;;24.73;13.38;;;10.40;99.90;;;;;;5073814;28;20028;-51
2023/11/20 04:21:17;;;;;;;19.25;10.65;;;10.40;99.90;;;;;;5073828;28;20023;-51
2023/11/20 04:23:43;;;;;;;25.48;11.13;;;10.40;99.90;;;;;;5073526;28;20508;-50
2023/11/20 04:26:09;;;;;;;26.27;11.48;;;10.50;99.90;;;;;;5072165;28;20441;-51
2023/11/20 04:28:35;;;;;;;25.42;11.98;;;10.40;99.90;;;;;;5073419;28;20028;-52
2023/11/20 04:31:01;;;;;;;20.95;11.45;;;10.40;99.90;;;;;;5070372;28;20124;-51
2023/11/20 04:33:27;;;;;;;22.30;11.38;;;10.40;99.90;;;;;;5070310;28;20032;-51
2023/11/20 04:35:53;;;;;;;25.58;12.30;;;10.40;99.90;;;;;;5070128;28;20140;-52
2023/11/20 04:38:19;;;;;;;23.25;11.10;;;10.40;99.90;;;;;;5070338;28;20020;-52
2023/11/20 04:40:48;;;;;;;21.95;11.07;;;10.40;99.90;;;;;;5070181;28;20021;-52
2023/11/20 04:43:14;;;;;;;19.77;10.77;;;10.40;99.90;;;;;;5070454;28;20466;-51
2023/11/20 04:45:40;;;;;;;15.88;9.50;;;10.40;99.90;;;;;;5070460;28;20085;-52
2023/11/20 04:48:05;;;;;;;21.38;10.45;;;10.40;99.90;;;;;;5069988;28;20111;-52
2023/11/20 04:50:31;;;;;;;18.20;9.75;;;10.40;99.90;;;;;;5070462;28;20029;-52
2023/11/20 04:52:56;;;;;;;20.90;10.98;;;10.40;99.90;;;;;;5070066;28;20043;-52
2023/11/20 04:55:22;;;;;;;20.38;9.07;;;10.40;99.90;;;;;;5070438;28;20025;-52
2023/11/20 04:57:47;;;;;;;15.02;8.85;;;10.40;99.90;;;;;;5068129;28;20104;-53
2023/11/20 05:00:13;;;;;;;14.10;8.88;;;10.40;99.90;;;;;;5072365;28;20028;-55
2023/11/20 05:02:39;;;;;;;20.73;8.65;;;10.40;99.90;;;;;;5070261;28;20220;-52
2023/11/20 05:05:07;;;;;;;16.10;8.82;;;10.40;99.90;;;;;;5069526;28;20024;-52
2023/11/20 05:07:36;;;;;;;18.45;9.30;;;10.40;99.90;;;;;;5070029;28;20029;-52
2023/11/20 05:10:02;;;;;;;15.55;8.65;;;10.40;99.90;;;;;;5069578;28;20029;-52
2023/11/20 05:12:27;;;;;;;16.55;9.32;;;10.40;99.90;;;;;;5069693;28;20024;-52
2023/11/20 05:14:53;;;;;;;19.63;9.68;;;10.40;99.90;;;;;;5069553;28;20398;-52
2023/11/20 05:17:20;;;;;;;21.55;10.40;;;10.40;99.90;;;;;;5069266;28;20056;-52
2023/11/20 05:19:46;;;;;;;19.42;11.27;;;10.40;99.90;;;;;;5069180;28;20020;-52
2023/11/20 05:22:12;;;;;;;18.10;9.85;;;10.40;99.90;;;;;;5069498;28;20094;-52
2023/11/20 05:24:41;;;;;;;15.32;8.55;;;10.40;99.90;;;;;;5067997;28;20370;-51
2023/11/20 05:27:11;;;;;;;11.02;7.80;;;10.40;99.90;;;;;;5064221;28;20043;-53
2023/11/20 05:29:37;;;;;;;10.18;7.18;;;10.40;99.90;;;;;;5068233;28;20099;-53
2023/11/20 05:32:04;;;;;;;10.07;6.28;;;10.40;99.90;;;;;;5069457;28;20030;-53
2023/11/20 05:34:30;;;;;;;9.80;5.70;;;10.40;99.90;;;;;;5069364;28;20033;-53
2023/11/20 05:36:55;;;;;;;5.82;2.67;;;10.40;99.90;;;;;;5067210;28;20469;-52
2023/11/20 05:39:21;;;;;;;2.22;1.75;;;10.40;99.90;;;;;;5069168;28;20504;-51
2023/11/20 05:41:47;;;;;;;3.03;2.00;;;10.40;99.90;;;;;;5067878;28;20025;-52
2023/11/20 05:44:13;;;;;;;3.58;1.58;;;10.30;99.90;;;;;;5069162;28;20031;-52
2023/11/20 05:46:39;;;;;;;1.73;1.17;;;10.30;99.90;;;;;;5067423;28;20025;-52
2023/11/20 05:49:04;;;;;;;1.00;0.90;;;10.30;99.90;;;;;;5069226;28;20494;-52
2023/11/20 05:51:30;;;;;;;1.90;0.98;;;10.20;99.90;;;;;;5069053;28;20021;-52
2023/11/20 05:53:56;;;;;;;3.03;0.90;;;10.20;99.90;;;;;;5068210;28;20028;-52
2023/11/20 05:56:23;;;;;;;1.25;0.60;;;10.20;99.90;;;;;;5067902;28;20032;-52
2023/11/20 05:58:48;;;;;;;2.20;0.70;;;10.20;99.90;;;;;;5066728;28;20028;-53
2023/11/20 06:01:14;;;;;;;0.98;0.80;;;10.20;99.90;;;;;;5068585;28;20049;-52
2023/11/20 06:03:39;;;;;;;20.30;9.15;;;10.20;99.90;;;;;;5068740;28;20103;-53
2023/11/20 06:06:05;;;;;;;14.73;8.35;;;10.20;99.90;;;;;;5068196;28;20498;-51
2023/11/20 06:08:32;;;;;;;24.40;12.68;;;10.20;99.90;;;;;;5068534;28;20021;-52
2023/11/20 06:10:57;;;;;;;29.15;14.52;;;10.30;99.90;;;;;;5068535;28;20040;-52
2023/11/20 06:13:23;;;;;;;24.85;11.82;;;10.30;99.90;;;;;;5069112;28;20442;-52
2023/11/20 06:15:48;;;;;;;26.10;12.90;;;10.30;99.90;;;;;;5068817;28;20024;-52
2023/11/20 06:18:14;;;;;;;29.55;12.95;;;10.40;99.90;;;;;;5068426;28;20465;-52
2023/11/20 06:20:39;;;;;;;23.23;12.30;;;10.30;99.90;;;;;;5068851;28;20095;-53
2023/11/20 06:23:09;;;;;;;24.05;12.93;;;10.30;99.90;;;;;;5068515;28;20029;-52
2023/11/20 06:25:34;;;;;;;22.05;11.68;;;10.40;99.90;;;;;;5068918;28;20020;-53
2023/11/20 06:28:01;;;;;;;28.35;13.52;;;10.30;99.90;;;;;;5068041;28;20440;-51
2023/11/20 06:30:26;;;;;;;27.70;13.52;;;10.30;99.90;;;;;;5067089;28;20067;-51
2023/11/20 06:32:52;;;;;;;22.75;11.98;;;10.40;99.90;;;;;;5058185;28;20052;-51
2023/11/20 06:35:17;;;;;;;30.92;13.95;;;10.30;99.90;;;;;;5067199;28;20028;-51
2023/11/20 06:37:43;;;;;;;32.40;12.80;;;10.40;99.90;;;;;;5067713;28;20032;-51
2023/11/20 06:40:10;;;;;;;27.17;11.90;;;10.30;99.90;;;;;;5068010;28;20043;-51
2023/11/20 06:42:36;;;;;;;28.83;11.90;;;10.40;99.90;;;;;;5068021;28;20526;-51
2023/11/20 06:45:02;;;;;;;26.13;12.75;;;10.40;99.90;;;;;;5068111;28;20104;-52
2023/11/20 06:47:27;;;;;;;19.77;11.35;;;10.40;99.90;;;;;;5067680;28;20104;-53
2023/11/20 06:49:53;;;;;;;32.13;12.60;;;10.40;99.90;;;;;;5068148;28;20129;-52
2023/11/20 06:52:18;;;;;;;24.38;12.15;;;10.30;99.90;;;;;;5067732;28;20123;-52
2023/11/20 06:54:44;;;;;;;28.38;12.60;;;10.40;99.90;;;;;;5067640;28;20047;-52
2023/11/20 06:57:11;;;;;;;28.77;12.95;;;10.40;99.90;;;;;;5067714;28;20414;-52
2023/11/20 06:59:37;;;;;;;23.67;12.25;;;10.40;99.90;;;;;;5068389;28;20020;-52
2023/11/20 07:02:03;;;;;;;21.10;11.52;;;10.30;99.90;;;;;;5068038;28;20533;-52
2023/11/20 07:04:28;;;;;;;28.40;12.57;;;10.30;99.90;;;;;;5067612;28;20016;-52
2023/11/20 07:06:54;;;;;;;25.05;12.25;;;10.30;99.90;;;;;;5067025;28;20021;-53
2023/11/20 07:09:25;;;;;;;32.50;13.02;;;10.30;99.90;;;;;;5066777;28;20037;-52
2023/11/20 07:11:51;;;;;;;27.23;12.40;;;10.30;99.90;;;;;;5066766;28;20037;-52
2023/11/20 07:14:16;;;;;;;19.13;10.43;;;10.40;99.90;;;;;;5067896;28;20103;-52
2023/11/20 07:16:42;;;;;;;23.98;10.75;;;10.40;99.90;;;;;;5067403;28;20111;-53
2023/11/20 07:19:08;;;;;;;24.48;10.98;;;10.30;99.90;;;;;;5067525;28;20051;-52
2023/11/20 07:21:34;;;;;;;21.50;10.90;;;10.40;99.90;;;;;;5067575;28;20517;-53
2023/11/20 07:24:01;;;;;;;21.75;11.18;;;10.30;99.90;;;;;;5067404;28;20483;-52
2023/11/20 07:26:27;;;;;;;25.73;10.90;;;10.30;99.90;;;;;;5067205;28;20122;-52
2023/11/20 07:28:53;;;;;;;18.98;9.38;;;10.30;99.90;;;;;;5067520;28;20055;-52
2023/11/20 07:31:29;;;;;;;21.23;9.18;;;10.30;99.90;;;;;;5066040;28;20501;-53
2023/11/20 07:33:55;;;;;;;20.95;9.43;;;10.40;99.90;;;;;;5067390;28;20485;-52
2023/11/20 07:36:21;;;;;;;18.23;9.43;;;10.30;99.90;;;;;;5066983;28;20051;-52
2023/11/20 07:38:47;;;;;;;18.17;8.65;;;10.40;99.90;;;;;;5066437;28;20020;-51
2023/11/20 07:41:14;;;;;;;17.08;8.23;;;10.30;99.90;;;;;;5067782;28;20612;-52
2023/11/20 07:43:39;;;;;;;24.27;8.32;;;10.30;99.90;;;;;;5067312;28;20024;-52
2023/11/20 07:46:07;;;;;;;21.48;9.38;;;10.40;99.90;;;;;;5067209;28;20313;-52
2023/11/20 07:48:33;;;;;;;17.63;8.23;;;10.40;99.90;;;;;;5066033;28;20036;-52
2023/11/20 07:50:59;;;;;;;25.08;8.38;;;10.40;99.90;;;;;;5067321;28;20056;-52
2023/11/20 07:53:25;;;;;;;16.58;8.13;;;10.40;99.90;;;;;;5067188;28;20013;-54
2023/11/20 07:55:51;;;;;;;16.38;8.82;;;10.40;99.90;;;;;;5067058;28;20543;-54
2023/11/20 07:58:16;;;;;;;19.02;8.27;;;10.30;99.90;;;;;;5066603;28;20108;-53
2023/11/20 08:00:42;;;;;;;13.95;7.68;;;10.40;99.90;;;;;;5066775;28;20153;-52
2023/11/20 08:03:08;;;;;;;16.75;7.88;;;10.40;99.90;;;;;;5066379;28;20031;-52
2023/11/20 08:05:34;;;;;;;18.45;7.80;;;10.40;99.90;;;;;;5066992;28;20611;-53
2023/11/20 08:08:00;;;;;;;14.02;7.05;;;10.40;99.90;;;;;;5068836;28;20127;-53
2023/11/20 08:10:26;;;;;;;17.55;8.02;;;10.40;99.90;;;;;;5069111;28;20139;-52
2023/11/20 08:12:51;;;;;;;14.63;7.35;;;10.40;99.90;;;;;;5069035;28;20474;-52
2023/11/20 08:15:17;;;;;;;14.88;6.57;;;10.40;99.90;;;;;;5069316;28;20032;-52
2023/11/20 08:17:42;;;;;;;15.32;7.72;;;10.40;99.90;;;;;;5068838;28;20485;-50
2023/11/20 08:20:09;;;;;;;15.38;7.22;;;10.40;99.90;;;;;;5070747;28;20061;-53
2023/11/20 08:22:36;;;;;;;22.70;8.63;;;10.40;99.90;;;;;;5069468;28;20390;-52
2023/11/20 08:25:02;;;;;;;14.10;7.78;;;10.40;99.90;;;;;;5071096;28;20031;-53
2023/11/20 08:27:29;;;;;;;22.65;7.82;;;10.40;99.90;;;;;;5070584;28;20024;-52
2023/11/20 08:29:55;;;;;;;14.35;7.72;;;10.40;99.90;;;;;;5070777;28;20141;-52
2023/11/20 08:32:21;;;;;;;20.80;8.18;;;10.40;99.90;;;;;;5070828;28;20107;-52
2023/11/20 08:34:46;;;;;;;14.60;7.45;;;10.40;99.90;;;;;;5070925;28;20032;-52
2023/11/20 08:37:12;;;;;;;21.10;8.30;;;10.40;99.90;;;;;;5070242;28;20108;-54
2023/11/20 08:39:39;;;;;;;17.63;8.40;;;10.40;99.90;;;;;;5068103;28;20054;-53
2023/11/20 08:42:05;;;;;;;21.00;9.70;;;10.40;99.90;;;;;;5070494;28;20016;-52
2023/11/20 08:44:31;;;;;;;22.40;9.43;;;10.40;99.90;;;;;;5070495;28;20024;-53
2023/11/20 08:46:56;;;;;;;21.70;10.48;;;10.40;99.90;;;;;;5069698;28;20052;-54
2023/11/20 08:49:22;;;;;;;20.45;9.85;;;10.40;99.90;;;;;;5070222;28;20110;-53
2023/11/20 08:51:48;;;;;;;18.83;9.93;;;10.40;99.90;;;;;;5070970;28;20047;-52
2023/11/20 08:54:13;;;;;;;18.85;10.98;;;10.40;99.90;;;;;;5070513;28;20037;-52
2023/11/20 08:56:39;;;;;;;21.10;11.50;;;10.40;99.90;;;;;;5068620;28;20035;-53
2023/11/20 08:59:05;;;;;;;23.55;11.43;;;10.40;99.90;;;;;;5070408;28;20063;-52
2023/11/20 09:01:34;;;;;;;30.88;12.60;;;10.40;99.90;;;;;;5070365;28;20382;-52
2023/11/20 09:04:01;;;;;;;27.13;11.48;;;10.40;99.90;;;;;;5070545;28;20346;-52
2023/11/20 09:06:26;;;;;;;22.75;10.43;;;10.40;99.90;;;;;;5070072;28;20020;-52
2023/11/20 09:08:52;;;;;;;23.27;10.73;;;10.40;99.90;;;;;;5070167;28;20021;-55
2023/11/20 09:11:17;;;;;;;23.02;10.93;;;10.40;99.90;;;;;;5070116;28;20346;-53
2023/11/20 09:13:43;;;;;;;21.33;10.50;;;10.40;99.90;;;;;;5069835;28;20300;-52
2023/11/20 09:16:10;;;;;;;17.80;9.30;;;10.40;99.90;;;;;;5068687;28;20727;-52
2023/11/20 09:18:35;;;;;;;26.30;10.40;;;10.50;99.90;;;;;;5069440;28;20020;-53
2023/11/20 09:21:04;;;;;;;24.00;10.15;;;10.50;99.90;;;;;;5069437;28;20497;-53
2023/11/20 09:23:30;;;;;;;21.52;9.68;;;10.50;99.90;;;;;;5069159;28;20055;-53
2023/11/20 09:25:56;;;;;;;24.83;10.65;;;10.40;99.90;;;;;;5069212;28;20070;-54
2023/11/20 09:28:23;;;;;;;17.67;9.07;;;10.50;99.90;;;;;;5069320;28;20024;-53
2023/11/20 09:30:49;;;;;;;16.60;8.20;;;10.50;99.90;;;;;;5069554;28;20029;-53
2023/11/20 09:33:14;;;;;;;13.63;7.53;;;10.50;99.90;;;;;;5069241;28;20081;-51
2023/11/20 09:35:40;;;;;;;12.23;7.78;;;10.50;99.90;;;;;;5069246;28;20028;-51
2023/11/20 09:38:06;;;;;;;15.82;7.53;;;10.50;99.90;;;;;;5068612;28;20332;-52
2023/11/20 09:40:32;;;;;;;12.90;7.00;;;10.50;99.90;;;;;;5069174;28;20051;-52
2023/11/20 09:42:59;;;;;;;15.93;6.88;;;10.50;99.90;;;;;;5070568;28;20095;-52
2023/11/20 09:45:28;;;;;;;11.65;6.50;;;10.50;99.90;;;;;;5068585;28;20021;-53
2023/11/20 09:47:59;;;;;;;11.18;6.82;;;10.40;99.90;;;;;;5067082;28;20036;-52
2023/11/20 09:50:28;;;;;;;15.30;5.82;;;10.40;99.90;;;;;;5067460;28;20025;-51
2023/11/20 09:52:55;;;;;;;13.30;5.85;;;10.40;99.90;;;;;;5069945;28;20054;-52
2023/11/20 09:55:22;;;;;;;11.40;5.32;;;10.50;99.90;;;;;;5069046;28;20021;-53
2023/11/20 09:57:49;;;;;;;11.02;5.10;;;10.50;99.90;;;;;;5068234;28;20052;-52
2023/11/20 10:00:17;;;;;;;11.15;5.07;;;10.50;99.90;;;;;;5069091;28;20069;-53
2023/11/20 10:02:46;;;;;;;10.52;5.28;;;10.40;99.90;;;;;;5067182;28;20024;-49
2023/11/20 10:05:17;;;;;;;11.43;5.32;;;10.40;99.90;;;;;;5060418;28;20021;-52
2023/11/20 10:07:43;;;;;;;;;;;10.40;99.90;;;;;;5068881;28;20036;-51
2023/11/20 10:10:11;;;;;;;9.70;4.72;;;10.40;99.90;;;;;;5068878;28;20213;-51
2023/11/20 10:12:39;;;;;;;10.45;4.97;;;10.40;99.90;;;;;;5069006;28;20387;-52
2023/11/20 10:15:06;;;;;;;10.10;4.00;;;10.40;99.90;;;;;;5068965;28;20032;-52
2023/11/20 10:17:36;;;;;;;8.38;4.43;;;10.50;99.90;;;;;;5068165;28;20029;-52
2023/11/20 10:20:02;;;;;;;12.05;5.10;;;10.50;99.90;;;;;;5068783;28;20042;-51
2023/11/20 10:22:34;;;;;;;8.10;4.57;;;10.50;99.90;;;;;;5068531;28;20027;-52
2023/11/20 10:25:03;;;;;;;7.93;4.45;;;10.60;99.90;;;;;;5068589;28;20056;-51
2023/11/20 10:27:31;;;;;;;8.52;4.18;;;10.60;99.90;;;;;;5067275;28;20051;-50
2023/11/20 10:29:56;;;;;;;6.15;3.70;;;10.50;99.90;;;;;;5068267;28;20029;-50
2023/11/20 10:32:24;;;;;;;10.93;3.72;;;10.50;99.90;;;;;;5068260;28;20131;-51
2023/11/20 10:35:13;;;;;;;7.32;3.28;;;10.50;99.90;;;;;;5068055;28;20073;-50
2023/11/20 10:37:52;;;;;;;8.30;3.75;;;10.40;99.90;;;;;;5068337;28;20020;-50
2023/11/20 10:40:18;;;;;;;6.85;3.53;;;10.40;99.90;;;;;;5068475;28;20021;-51
2023/11/20 10:42:43;;;;;;;9.88;4.03;;;10.40;99.90;;;;;;5068410;28;20385;-52
2023/11/20 10:45:09;;;;;;;7.68;3.50;;;10.40;99.90;;;;;;5060035;28;20016;-52
2023/11/20 10:47:36;;;;;;;10.02;4.07;;;10.40;99.90;;;;;;5066887;28;20367;-51
2023/11/20 10:50:01;;;;;;;7.70;3.83;;;10.40;99.90;;;;;;5068050;28;20028;-51
2023/11/20 10:52:30;;;;;;;12.98;4.30;;;10.40;99.90;;;;;;5067299;28;20162;-52
2023/11/20 10:55:01;;;;;;;11.70;4.50;;;10.40;99.90;;;;;;5068598;28;20033;-53
2023/11/20 10:57:28;;;;;;;10.02;4.95;;;10.40;99.90;;;;;;5068089;28;20032;-56
2023/11/20 10:59:56;;;;;;;15.60;5.55;;;10.40;99.90;;;;;;5067024;28;20056;-54
2023/11/20 11:02:23;;;;;;;20.38;6.45;;;10.30;99.90;;;;;;5068298;28;20018;-54
2023/11/20 11:04:52;;;;;;;21.92;5.90;;;10.30;99.90;;;;;;5068232;28;20044;-53
2023/11/20 11:07:21;;;;;;;20.33;7.40;;;10.30;99.90;;;;;;5066210;28;20485;-53
2023/11/20 11:09:48;;;;;;;24.80;7.30;;;10.30;99.90;;;;;;5067849;28;20075;-53
2023/11/20 11:12:15;;;;;;;17.40;7.38;;;10.30;99.90;;;;;;5066608;28;20033;-53
2023/11/20 11:14:41;;;;;;;20.83;7.82;;;10.30;99.90;;;;;;5067184;28;20047;-53
2023/11/20 11:17:10;;;;;;;27.67;8.20;;;10.30;99.90;;;;;;5067783;28;20025;-53
2023/11/20 11:19:40;;;;;;;22.40;7.57;;;10.40;99.90;;;;;;5068223;28;20055;-52
2023/11/20 11:22:13;;;;;;;20.35;8.80;;;10.30;99.90;;;;;;5068371;28;20084;-53
2023/11/20 11:24:44;;;;;;;17.27;7.57;;;10.40;99.90;;;;;;5068392;28;20031;-53
2023/11/20 11:27:18;;;;;;;27.95;9.68;;;10.30;99.90;;;;;;5067773;28;20025;-53
2023/11/20 11:29:49;;;;;;;29.20;13.15;;;10.30;99.90;;;;;;5068413;28;20119;-53
2023/11/20 11:32:30;;;;;;;26.85;9.93;;;10.30;99.90;;;;;;5068225;28;20078;-52
2023/11/20 11:35:13;;;;;;;32.25;9.27;;;10.30;99.90;;;;;;5068488;28;20535;-53
2023/11/20 11:37:50;;;;;;;37.97;10.73;;;10.30;99.90;;;;;;5067572;28;20028;-53
2023/11/20 11:40:27;;;;;;;38.55;10.60;;;10.30;99.90;;;;;;5062688;28;20033;-53
2023/11/20 11:42:57;;;;;;;38.08;9.52;;;10.20;99.90;;;;;;5068778;28;20020;-54
2023/11/20 11:45:27;;;;;;;23.20;9.40;;;10.20;99.90;;;;;;5070152;28;20159;-53
2023/11/20 11:47:52;;;;;;;45.80;12.35;;;10.30;99.90;;;;;;5067515;28;20500;-53
2023/11/20 11:50:18;;;;;;;33.13;10.27;;;10.20;99.90;;;;;;5069536;28;20028;-54
2023/11/20 11:52:48;;;;;;;26.40;9.80;;;10.20;99.90;;;;;;5066723;28;20090;-53
2023/11/20 11:55:16;;;;;;;31.35;10.05;;;10.20;99.90;;;;;;5067476;28;20020;-53
2023/11/20 11:57:58;;;;;;;24.98;9.50;;;10.20;99.90;;;;;;5067227;28;20197;-53
2023/11/20 12:00:26;;;;;;;33.72;10.05;;;10.20;99.90;;;;;;5066686;28;20338;-52
2023/11/20 12:02:53;;;;;;;48.97;14.02;;;10.30;99.90;;;;;;5066620;28;20112;-53
2023/11/20 12:05:19;;;;;;;36.67;11.50;;;10.20;99.90;;;;;;5066076;28;20067;-53
2023/11/20 12:07:49;;;;;;;19.60;9.50;;;10.20;99.90;;;;;;5065238;28;20028;-53
2023/11/20 12:10:34;;;;;;;26.27;10.75;;;10.20;99.90;;;;;;5066804;28;20028;-53
2023/11/20 12:13:02;;;;;;;29.17;10.02;;;10.20;99.90;;;;;;5065454;28;20073;-53
2023/11/20 12:15:31;;;;;;;43.13;12.98;;;10.30;99.90;;;;;;5067539;28;20425;-53
2023/11/20 12:18:00;;;;;;;41.88;12.75;;;10.20;99.90;;;;;;5065093;28;20021;-53
2023/11/20 12:20:26;;;;;;;37.45;11.70;;;10.20;99.90;;;;;;5064314;28;20025;-52
2023/11/20 12:22:52;;;;;;;33.10;12.25;;;10.20;99.90;;;;;;5069082;28;20367;-53
2023/11/20 12:25:18;;;;;;;30.00;10.70;;;10.10;99.90;;;;;;5069930;28;20020;-52
2023/11/20 12:27:46;;;;;;;32.08;10.98;;;10.10;99.90;;;;;;5069515;28;20441;-53
2023/11/20 12:30:13;;;;;;;42.35;11.55;;;10.10;99.90;;;;;;5069024;28;20056;-53
2023/11/20 12:32:39;;;;;;;26.27;10.50;;;10.10;99.90;;;;;;5070268;28;20135;-53
2023/11/20 12:35:05;;;;;;;37.05;12.35;;;10.10;99.90;;;;;;5070240;28;20036;-53